sensor_id;sensor_type;location;lat;lon;timestamp;pressure;altitude;pressure_sealevel;temperature;humidity
43934;BME280;59081;42.706;23.306;2023-12-14T00:02:44;94024.41;;;4.55;100.00
43934;BME280;59081;42.706;23.306;2023-12-14T00:07:48;94057.81;;;4.75;100.00
43934;BME280;59081;42.706;23.306;2023-12-14T00:12:49;94101.22;;;5.18;100.00
43934;BME280;59081;42.706;23.306;2023-12-14T00:17:51;93989.91;;;3.80;100.00
43934;BME280;59081;42.706;23.306;2023-12-14T00:22:51;94188.13;;;5.20;100.00
43934;BME280;59081;42.706;23.306;2023-12-14T00:27:52;94047.75;;;4.40;100.00
43934;BME280;59081;42.706;23.306;2023-12-14T00:32:53;94087.66;;;4.66;100.00
43934;BME280;59081;42.706;23.306;2023-12-14T00:37:54;94053.81;;;4.47;100.00
43934;BME280;59081;42.706;23.306;2023-12-14T00:42:54;93939.81;;;3.58;100.00
43934;BME280;59081;42.706;23.306;2023-12-14T00:47:55;94202.47;;;5.40;100.00
43934;BME280;59081;42.706;23.306;2023-12-14T00:52:56;94044.56;;;4.25;100.00
43934;BME280;59081;42.706;23.306;2023-12-14T00:57:56;94032.81;;;4.12;100.00
43934;BME280;59081;42.706;23.306;2023-12-14T01:02:57;93958.25;;;3.50;100.00
43934;BME280;59081;42.706;23.306;2023-12-14T01:07:57;94004.00;;;3.95;100.00
43934;BME280;59081;42.706;23.306;2023-12-14T01:12:58;94214.00;;;5.32;100.00
43934;BME280;59081;42.706;23.306;2023-12-14T01:17:58;94063.13;;;4.14;100.00
43934;BME280;59081;42.706;23.306;2023-12-14T01:23:01;94008.25;;;3.96;100.00
43934;BME280;59081;42.706;23.306;2023-12-14T01:28:02;94232.59;;;5.37;100.00
43934;BME280;59081;42.706;23.306;2023-12-14T01:33:03;94240.97;;;4.94;100.00
43934;BME280;59081;42.706;23.306;2023-12-14T01:38:03;94063.22;;;3.91;100.00
43934;BME280;59081;42.706;23.306;2023-12-14T01:43:08;94107.22;;;3.89;100.00
43934;BME280;59081;42.706;23.306;2023-12-14T01:48:10;93967.31;;;2.84;100.00
43934;BME280;59081;42.706;23.306;2023-12-14T01:53:11;94030.97;;;3.30;100.00
43934;BME280;59081;42.706;23.306;2023-12-14T01:58:11;93987.59;;;3.23;100.00
43934;BME280;59081;42.706;23.306;2023-12-14T02:03:12;94003.28;;;3.55;100.00
43934;BME280;59081;42.706;23.306;2023-12-14T02:08:13;94067.63;;;3.65;100.00
43934;BME280;59081;42.706;23.306;2023-12-14T02:13:16;94198.56;;;4.73;100.00
43934;BME280;59081;42.706;23.306;2023-12-14T02:18:16;94114.91;;;3.94;100.00
43934;BME280;59081;42.706;23.306;2023-12-14T02:23:17;94029.44;;;3.68;100.00
43934;BME280;59081;42.706;23.306;2023-12-14T02:28:18;94048.09;;;4.06;100.00
43934;BME280;59081;42.706;23.306;2023-12-14T02:33:18;93988.47;;;3.56;100.00
43934;BME280;59081;42.706;23.306;2023-12-14T02:38:19;94091.66;;;3.90;100.00
43934;BME280;59081;42.706;23.306;2023-12-14T02:43:19;93876.25;;;2.53;100.00
43934;BME280;59081;42.706;23.306;2023-12-14T02:48:20;93935.75;;;2.90;100.00
43934;BME280;59081;42.706;23.306;2023-12-14T02:53:21;94139.44;;;4.14;100.00
43934;BME280;59081;42.706;23.306;2023-12-14T02:58:21;93946.53;;;2.74;100.00
43934;BME280;59081;42.706;23.306;2023-12-14T03:03:22;94024.75;;;3.49;100.00
43934;BME280;59081;42.706;23.306;2023-12-14T03:08:22;94017.28;;;3.13;100.00
43934;BME280;59081;42.706;23.306;2023-12-14T03:13:23;93961.34;;;3.12;100.00
43934;BME280;59081;42.706;23.306;2023-12-14T03:18:24;94064.47;;;4.06;100.00
43934;BME280;59081;42.706;23.306;2023-12-14T03:23:24;94072.44;;;3.97;100.00
43934;BME280;59081;42.706;23.306;2023-12-14T03:28:25;93938.78;;;3.32;100.00
43934;BME280;59081;42.706;23.306;2023-12-14T03:33:25;94003.38;;;3.87;100.00
43934;BME280;59081;42.706;23.306;2023-12-14T03:38:26;94024.84;;;4.01;100.00
43934;BME280;59081;42.706;23.306;2023-12-14T03:43:27;93906.47;;;3.34;100.00
43934;BME280;59081;42.706;23.306;2023-12-14T03:48:27;93961.16;;;3.95;100.00
43934;BME280;59081;42.706;23.306;2023-12-14T03:53:28;94161.94;;;5.06;100.00
43934;BME280;59081;42.706;23.306;2023-12-14T03:58:28;93978.94;;;3.64;100.00
43934;BME280;59081;42.706;23.306;2023-12-14T04:03:29;93948.22;;;3.07;100.00
43934;BME280;59081;42.706;23.306;2023-12-14T04:08:29;93985.81;;;3.32;100.00
43934;BME280;59081;42.706;23.306;2023-12-14T04:13:36;93856.53;;;2.68;100.00
43934;BME280;59081;42.706;23.306;2023-12-14T04:18:36;93902.59;;;3.15;100.00
43934;BME280;59081;42.706;23.306;2023-12-14T04:23:37;94004.13;;;3.88;100.00
43934;BME280;59081;42.706;23.306;2023-12-14T04:28:38;94035.84;;;3.98;100.00
43934;BME280;59081;42.706;23.306;2023-12-14T04:33:39;94027.31;;;3.96;100.00
43934;BME280;59081;42.706;23.306;2023-12-14T04:38:40;93960.16;;;3.69;100.00
43934;BME280;59081;42.706;23.306;2023-12-14T04:43:41;94086.09;;;3.77;100.00
43934;BME280;59081;42.706;23.306;2023-12-14T04:48:41;94010.69;;;3.34;100.00
43934;BME280;59081;42.706;23.306;2023-12-14T04:53:42;94006.75;;;3.55;100.00
43934;BME280;59081;42.706;23.306;2023-12-14T04:58:43;94100.53;;;3.94;100.00
43934;BME280;59081;42.706;23.306;2023-12-14T05:03:43;93957.28;;;2.81;100.00
43934;BME280;59081;42.706;23.306;2023-12-14T05:08:44;93925.81;;;2.80;100.00
43934;BME280;59081;42.706;23.306;2023-12-14T05:13:45;93990.91;;;3.30;100.00
43934;BME280;59081;42.706;23.306;2023-12-14T05:18:45;93903.03;;;2.74;100.00
43934;BME280;59081;42.706;23.306;2023-12-14T05:23:46;94038.94;;;3.60;100.00
43934;BME280;59081;42.706;23.306;2023-12-14T05:28:46;94099.75;;;4.13;100.00
43934;BME280;59081;42.706;23.306;2023-12-14T05:33:47;93952.44;;;3.48;100.00
43934;BME280;59081;42.706;23.306;2023-12-14T05:38:50;94147.91;;;4.72;100.00
43934;BME280;59081;42.706;23.306;2023-12-14T05:43:51;94212.78;;;5.00;100.00
43934;BME280;59081;42.706;23.306;2023-12-14T05:48:51;94028.56;;;3.91;100.00
43934;BME280;59081;42.706;23.306;2023-12-14T05:53:52;94196.00;;;4.66;100.00
43934;BME280;59081;42.706;23.306;2023-12-14T05:58:52;93981.50;;;3.35;100.00
43934;BME280;59081;42.706;23.306;2023-12-14T06:03:53;94042.44;;;3.80;100.00
43934;BME280;59081;42.706;23.306;2023-12-14T06:08:53;94001.59;;;3.61;100.00
43934;BME280;59081;42.706;23.306;2023-12-14T06:13:54;94100.81;;;4.35;100.00
43934;BME280;59081;42.706;23.306;2023-12-14T06:18:55;94077.78;;;4.20;100.00
43934;BME280;59081;42.706;23.306;2023-12-14T06:23:56;93995.59;;;3.49;100.00
43934;BME280;59081;42.706;23.306;2023-12-14T06:29:00;94004.75;;;3.59;100.00
43934;BME280;59081;42.706;23.306;2023-12-14T06:34:00;94017.41;;;3.85;100.00
43934;BME280;59081;42.706;23.306;2023-12-14T06:39:04;93988.56;;;2.69;100.00
43934;BME280;59081;42.706;23.306;2023-12-14T06:44:05;94182.91;;;3.58;100.00
43934;BME280;59081;42.706;23.306;2023-12-14T06:49:09;94053.13;;;2.89;100.00
43934;BME280;59081;42.706;23.306;2023-12-14T06:54:09;93902.63;;;2.32;100.00
43934;BME280;59081;42.706;23.306;2023-12-14T06:59:13;94048.31;;;3.79;100.00
43934;BME280;59081;42.706;23.306;2023-12-14T07:04:13;94246.06;;;5.44;100.00
43934;BME280;59081;42.706;23.306;2023-12-14T07:09:14;94068.78;;;4.55;100.00
43934;BME280;59081;42.706;23.306;2023-12-14T07:14:15;94142.31;;;7.57;100.00
43934;BME280;59081;42.706;23.306;2023-12-14T07:19:15;94152.66;;;7.75;100.00
43934;BME280;59081;42.706;23.306;2023-12-14T07:24:16;94151.44;;;7.29;100.00
43934;BME280;59081;42.706;23.306;2023-12-14T07:29:16;94085.19;;;7.56;100.00
43934;BME280;59081;42.706;23.306;2023-12-14T07:34:17;94285.56;;;8.30;93.75
43934;BME280;59081;42.706;23.306;2023-12-14T07:39:18;94090.94;;;6.89;94.31
43934;BME280;59081;42.706;23.306;2023-12-14T07:44:19;94174.13;;;7.29;94.02
43934;BME280;59081;42.706;23.306;2023-12-14T07:49:20;94226.81;;;7.33;95.71
43934;BME280;59081;42.706;23.306;2023-12-14T07:54:22;94264.81;;;7.82;95.36
43934;BME280;59081;42.706;23.306;2023-12-14T07:59:23;94027.56;;;6.02;95.68
43934;BME280;59081;42.706;23.306;2023-12-14T08:04:24;94130.00;;;7.15;94.75
43934;BME280;59081;42.706;23.306;2023-12-14T08:09:24;94221.56;;;7.52;95.51
43934;BME280;59081;42.706;23.306;2023-12-14T08:14:25;94278.09;;;7.96;93.25
43934;BME280;59081;42.706;23.306;2023-12-14T08:19:25;94066.84;;;6.84;92.17
43934;BME280;59081;42.706;23.306;2023-12-14T08:24:26;94164.41;;;7.63;92.15
43934;BME280;59081;42.706;23.306;2023-12-14T08:29:26;94123.88;;;7.58;90.15
43934;BME280;59081;42.706;23.306;2023-12-14T08:34:27;94256.88;;;8.10;90.71
43934;BME280;59081;42.706;23.306;2023-12-14T08:39:28;94146.09;;;7.73;90.25
43934;BME280;59081;42.706;23.306;2023-12-14T08:44:32;94166.41;;;8.19;89.25
43934;BME280;59081;42.706;23.306;2023-12-14T08:49:32;94252.41;;;9.03;87.49
43934;BME280;59081;42.706;23.306;2023-12-14T08:54:33;94040.94;;;7.45;87.96
43934;BME280;59081;42.706;23.306;2023-12-14T08:59:37;94049.41;;;7.94;85.63
43934;BME280;59081;42.706;23.306;2023-12-14T09:04:38;94102.34;;;8.56;85.46
43934;BME280;59081;42.706;23.306;2023-12-14T09:09:39;94273.88;;;9.97;83.25
43934;BME280;59081;42.706;23.306;2023-12-14T09:20:37;94305.56;;;9.40;84.89
43934;BME280;59081;42.706;23.306;2023-12-14T09:25:51;94172.25;;;9.35;82.38
43934;BME280;59081;42.706;23.306;2023-12-14T09:30:58;94028.50;;;8.89;81.15
43934;BME280;59081;42.706;23.306;2023-12-14T09:35:59;94152.22;;;10.02;78.67
43934;BME280;59081;42.706;23.306;2023-12-14T09:41:00;94172.72;;;10.47;75.99
43934;BME280;59081;42.706;23.306;2023-12-14T09:46:04;94064.97;;;8.90;77.66
43934;BME280;59081;42.706;23.306;2023-12-14T09:51:10;94192.75;;;9.43;80.87
43934;BME280;59081;42.706;23.306;2023-12-14T09:56:12;94283.16;;;10.49;79.17
43934;BME280;59081;42.706;23.306;2023-12-14T10:01:26;94116.13;;;9.05;79.79
43934;BME280;59081;42.706;23.306;2023-12-14T10:06:34;94214.81;;;9.62;82.75
43934;BME280;59081;42.706;23.306;2023-12-14T10:11:45;94063.41;;;9.38;78.78
43934;BME280;59081;42.706;23.306;2023-12-14T10:16:47;94158.97;;;10.29;78.53
43934;BME280;59081;42.706;23.306;2023-12-14T10:21:49;94253.06;;;11.33;76.59
43934;BME280;59081;42.706;23.306;2023-12-14T10:26:50;94236.44;;;11.51;75.94
43934;BME280;59081;42.706;23.306;2023-12-14T10:37:12;94176.53;;;10.68;78.93
43934;BME280;59081;42.706;23.306;2023-12-14T10:42:21;94357.81;;;11.51;83.06
43934;BME280;59081;42.706;23.306;2023-12-14T10:47:25;94169.03;;;9.86;87.64
43934;BME280;59081;42.706;23.306;2023-12-14T10:52:28;94151.03;;;9.36;91.37
43934;BME280;59081;42.706;23.306;2023-12-14T10:57:33;94364.16;;;10.21;98.16
43934;BME280;59081;42.706;23.306;2023-12-14T11:02:42;94375.25;;;10.57;97.07
43934;BME280;59081;42.706;23.306;2023-12-14T11:08:05;94262.44;;;9.59;94.42
43934;BME280;59081;42.706;23.306;2023-12-14T11:13:13;94388.97;;;10.30;93.77
43934;BME280;59081;42.706;23.306;2023-12-14T11:18:21;94255.38;;;8.65;96.38
43934;BME280;59081;42.706;23.306;2023-12-14T11:23:27;94301.34;;;8.73;94.12
43934;BME280;59081;42.706;23.306;2023-12-14T11:28:45;94406.38;;;9.43;91.95
43934;BME280;59081;42.706;23.306;2023-12-14T11:34:21;94291.09;;;8.05;93.38
43934;BME280;59081;42.706;23.306;2023-12-14T11:39:33;94207.91;;;7.26;94.49
43934;BME280;59081;42.706;23.306;2023-12-14T11:44:43;94444.44;;;8.76;94.38
43934;BME280;59081;42.706;23.306;2023-12-14T11:49:49;94470.44;;;8.96;92.12
43934;BME280;59081;42.706;23.306;2023-12-14T11:55:04;94224.88;;;7.21;92.38
43934;BME280;59081;42.706;23.306;2023-12-14T12:00:17;94369.13;;;7.91;94.05
43934;BME280;59081;42.706;23.306;2023-12-14T12:05:35;94287.44;;;7.48;92.86
43934;BME280;59081;42.706;23.306;2023-12-14T12:10:51;94262.00;;;7.22;92.96
43934;BME280;59081;42.706;23.306;2023-12-14T12:15:59;94321.41;;;7.51;93.64
43934;BME280;59081;42.706;23.306;2023-12-14T12:21:03;94424.41;;;8.28;92.92
43934;BME280;59081;42.706;23.306;2023-12-14T12:26:19;94244.16;;;6.63;93.96
43934;BME280;59081;42.706;23.306;2023-12-14T12:31:23;94212.84;;;6.52;94.46
43934;BME280;59081;42.706;23.306;2023-12-14T12:36:29;94260.31;;;6.87;93.45
43934;BME280;59081;42.706;23.306;2023-12-14T12:41:37;94500.78;;;8.29;95.10
43934;BME280;59081;42.706;23.306;2023-12-14T12:46:43;94495.75;;;8.28;95.63
43934;BME280;59081;42.706;23.306;2023-12-14T12:51:55;94275.97;;;6.74;96.22
43934;BME280;59081;42.706;23.306;2023-12-14T12:57:44;94513.59;;;8.07;97.39
43934;BME280;59081;42.706;23.306;2023-12-14T13:03:18;94517.09;;;7.95;97.86
43934;BME280;59081;42.706;23.306;2023-12-14T13:08:20;94500.88;;;8.00;97.63
43934;BME280;59081;42.706;23.306;2023-12-14T13:13:25;94488.34;;;7.99;97.00
43934;BME280;59081;42.706;23.306;2023-12-14T13:18:27;94414.13;;;7.11;97.26
43934;BME280;59081;42.706;23.306;2023-12-14T13:23:42;94438.53;;;7.34;95.55
43934;BME280;59081;42.706;23.306;2023-12-14T13:28:57;94337.44;;;6.40;95.84
43934;BME280;59081;42.706;23.306;2023-12-14T13:34:08;94356.69;;;6.66;95.77
43934;BME280;59081;42.706;23.306;2023-12-14T13:39:09;94347.53;;;6.27;95.82
43934;BME280;59081;42.706;23.306;2023-12-14T13:44:10;94253.78;;;5.65;95.39
43934;BME280;59081;42.706;23.306;2023-12-14T13:49:11;94511.47;;;7.44;95.87
43934;BME280;59081;42.706;23.306;2023-12-14T13:54:12;94244.44;;;5.79;96.00
43934;BME280;59081;42.706;23.306;2023-12-14T13:59:12;94232.47;;;5.73;95.49
43934;BME280;59081;42.706;23.306;2023-12-14T14:04:13;94507.34;;;7.23;96.13
43934;BME280;59081;42.706;23.306;2023-12-14T14:09:14;94427.34;;;6.71;95.81
43934;BME280;59081;42.706;23.306;2023-12-14T14:14:14;94523.25;;;7.12;95.81
43934;BME280;59081;42.706;23.306;2023-12-14T14:19:15;94268.34;;;5.58;94.96
43934;BME280;59081;42.706;23.306;2023-12-14T14:24:16;94230.72;;;5.17;94.52
43934;BME280;59081;42.706;23.306;2023-12-14T14:29:16;94318.56;;;5.48;97.13
43934;BME280;59081;42.706;23.306;2023-12-14T14:34:18;94391.25;;;5.78;96.70
43934;BME280;59081;42.706;23.306;2023-12-14T14:39:22;94482.56;;;6.82;93.58
43934;BME280;59081;42.706;23.306;2023-12-14T14:44:24;94407.69;;;6.11;96.87
43934;BME280;59081;42.706;23.306;2023-12-14T14:49:25;94404.97;;;6.27;95.18
43934;BME280;59081;42.706;23.306;2023-12-14T14:54:26;94535.38;;;7.44;94.26
43934;BME280;59081;42.706;23.306;2023-12-14T14:59:26;94466.91;;;7.27;93.07
43934;BME280;59081;42.706;23.306;2023-12-14T15:04:30;94319.28;;;6.17;94.27
43934;BME280;59081;42.706;23.306;2023-12-14T15:09:32;94507.75;;;7.22;93.84
43934;BME280;59081;42.706;23.306;2023-12-14T15:14:33;94336.41;;;5.53;100.00
43934;BME280;59081;42.706;23.306;2023-12-14T15:19:34;94397.09;;;6.13;99.94
43934;BME280;59081;42.706;23.306;2023-12-14T15:24:34;94362.84;;;6.08;99.81
43934;BME280;59081;42.706;23.306;2023-12-14T15:29:35;94505.63;;;7.13;99.44
43934;BME280;59081;42.706;23.306;2023-12-14T15:34:35;94502.66;;;6.26;100.00
43934;BME280;59081;42.706;23.306;2023-12-14T15:39:36;94468.13;;;6.16;100.00
43934;BME280;59081;42.706;23.306;2023-12-14T15:44:37;94433.41;;;5.97;100.00
43934;BME280;59081;42.706;23.306;2023-12-14T15:49:41;94531.63;;;6.24;100.00
43934;BME280;59081;42.706;23.306;2023-12-14T15:54:45;94567.88;;;6.28;100.00
43934;BME280;59081;42.706;23.306;2023-12-14T15:59:46;94485.81;;;6.12;100.00
43934;BME280;59081;42.706;23.306;2023-12-14T16:04:46;94615.59;;;6.79;100.00
43934;BME280;59081;42.706;23.306;2023-12-14T16:09:48;94443.34;;;5.71;100.00
43934;BME280;59081;42.706;23.306;2023-12-14T16:14:49;94604.53;;;6.67;100.00
43934;BME280;59081;42.706;23.306;2023-12-14T16:19:51;94405.50;;;5.34;100.00
43934;BME280;59081;42.706;23.306;2023-12-14T16:25:01;94513.16;;;5.13;100.00
43934;BME280;59081;42.706;23.306;2023-12-14T16:30:01;94558.50;;;5.50;100.00
43934;BME280;59081;42.706;23.306;2023-12-14T16:35:03;94533.66;;;5.64;100.00
43934;BME280;59081;42.706;23.306;2023-12-14T16:40:05;94562.88;;;5.24;100.00
43934;BME280;59081;42.706;23.306;2023-12-14T16:45:06;94583.53;;;5.68;100.00
43934;BME280;59081;42.706;23.306;2023-12-14T16:50:10;94596.34;;;5.05;100.00
43934;BME280;59081;42.706;23.306;2023-12-14T16:55:13;94472.91;;;4.27;100.00
43934;BME280;59081;42.706;23.306;2023-12-14T17:00:14;94593.50;;;5.35;100.00
43934;BME280;59081;42.706;23.306;2023-12-14T17:05:15;94455.56;;;3.91;100.00
43934;BME280;59081;42.706;23.306;2023-12-14T17:10:16;94711.25;;;5.87;100.00
43934;BME280;59081;42.706;23.306;2023-12-14T17:15:17;94415.44;;;3.64;100.00
43934;BME280;59081;42.706;23.306;2023-12-14T17:20:18;94517.41;;;4.20;100.00
43934;BME280;59081;42.706;23.306;2023-12-14T17:25:19;94575.50;;;4.68;100.00
43934;BME280;59081;42.706;23.306;2023-12-14T17:30:20;94377.03;;;3.01;100.00
43934;BME280;59081;42.706;23.306;2023-12-14T17:35:21;94652.75;;;5.15;100.00
43934;BME280;59081;42.706;23.306;2023-12-14T17:40:24;94411.31;;;3.26;100.00
43934;BME280;59081;42.706;23.306;2023-12-14T17:45:26;94487.69;;;3.45;100.00
43934;BME280;59081;42.706;23.306;2023-12-14T17:50:27;94468.19;;;3.77;100.00
43934;BME280;59081;42.706;23.306;2023-12-14T17:55:27;94676.66;;;4.53;100.00
43934;BME280;59081;42.706;23.306;2023-12-14T18:00:28;94744.31;;;5.46;100.00
43934;BME280;59081;42.706;23.306;2023-12-14T18:05:30;94520.66;;;4.12;100.00
43934;BME280;59081;42.706;23.306;2023-12-14T18:10:31;94573.16;;;3.85;100.00
43934;BME280;59081;42.706;23.306;2023-12-14T18:15:32;94557.66;;;4.36;100.00
43934;BME280;59081;42.706;23.306;2023-12-14T18:20:42;94759.00;;;5.79;100.00
43934;BME280;59081;42.706;23.306;2023-12-14T18:25:48;94566.50;;;4.17;100.00
43934;BME280;59081;42.706;23.306;2023-12-14T18:30:49;94788.06;;;5.70;100.00
43934;BME280;59081;42.706;23.306;2023-12-14T18:35:58;94809.88;;;5.19;100.00
43934;BME280;59081;42.706;23.306;2023-12-14T18:41:08;94759.13;;;5.49;100.00
43934;BME280;59081;42.706;23.306;2023-12-14T18:46:16;94737.38;;;4.88;100.00
43934;BME280;59081;42.706;23.306;2023-12-14T18:51:26;94649.31;;;4.57;100.00
43934;BME280;59081;42.706;23.306;2023-12-14T18:56:33;94767.47;;;5.38;100.00
43934;BME280;59081;42.706;23.306;2023-12-14T19:01:37;94784.47;;;5.22;100.00
43934;BME280;59081;42.706;23.306;2023-12-14T19:06:40;94788.41;;;5.72;100.00
43934;BME280;59081;42.706;23.306;2023-12-14T19:17:04;94702.13;;;4.70;100.00
43934;BME280;59081;42.706;23.306;2023-12-14T19:22:08;94576.00;;;3.78;100.00
43934;BME280;59081;42.706;23.306;2023-12-14T19:27:12;94681.06;;;5.71;100.00
43934;BME280;59081;42.706;23.306;2023-12-14T19:32:28;94849.50;;;5.31;100.00
43934;BME280;59081;42.706;23.306;2023-12-14T19:37:34;94683.56;;;4.62;100.00
43934;BME280;59081;42.706;23.306;2023-12-14T19:42:36;94663.72;;;4.31;100.00
43934;BME280;59081;42.706;23.306;2023-12-14T19:47:39;94831.69;;;5.50;100.00
43934;BME280;59081;42.706;23.306;2023-12-14T19:52:43;94809.03;;;5.22;100.00
43934;BME280;59081;42.706;23.306;2023-12-14T19:57:46;94753.69;;;4.65;100.00
43934;BME280;59081;42.706;23.306;2023-12-14T20:02:50;94830.59;;;5.17;100.00
43934;BME280;59081;42.706;23.306;2023-12-14T20:07:56;94854.00;;;5.45;100.00
43934;BME280;59081;42.706;23.306;2023-12-14T20:12:57;94898.19;;;5.67;100.00
43934;BME280;59081;42.706;23.306;2023-12-14T20:17:58;94880.63;;;5.68;100.00
43934;BME280;59081;42.706;23.306;2023-12-14T20:23:02;94749.97;;;4.14;100.00
43934;BME280;59081;42.706;23.306;2023-12-14T20:28:06;94710.47;;;3.54;100.00
43934;BME280;59081;42.706;23.306;2023-12-14T20:33:09;94703.72;;;3.69;100.00
43934;BME280;59081;42.706;23.306;2023-12-14T20:38:15;94719.28;;;4.06;100.00
43934;BME280;59081;42.706;23.306;2023-12-14T20:43:21;94675.44;;;3.56;100.00
43934;BME280;59081;42.706;23.306;2023-12-14T20:48:27;94882.91;;;4.78;100.00
43934;BME280;59081;42.706;23.306;2023-12-14T20:53:28;94804.78;;;4.23;100.00
43934;BME280;59081;42.706;23.306;2023-12-14T20:58:33;94914.06;;;4.84;100.00
43934;BME280;59081;42.706;23.306;2023-12-14T21:03:45;94814.75;;;3.99;100.00
43934;BME280;59081;42.706;23.306;2023-12-14T21:08:54;94942.59;;;4.76;100.00
43934;BME280;59081;42.706;23.306;2023-12-14T21:14:01;94896.59;;;4.33;100.00
43934;BME280;59081;42.706;23.306;2023-12-14T21:19:02;94832.25;;;4.02;100.00
43934;BME280;59081;42.706;23.306;2023-12-14T21:24:05;94855.03;;;4.22;100.00
43934;BME280;59081;42.706;23.306;2023-12-14T21:29:12;94744.34;;;3.49;100.00
43934;BME280;59081;42.706;23.306;2023-12-14T21:34:20;94890.72;;;4.38;100.00
43934;BME280;59081;42.706;23.306;2023-12-14T21:39:21;94969.63;;;5.01;100.00
43934;BME280;59081;42.706;23.306;2023-12-14T21:44:24;94970.28;;;4.71;100.00
43934;BME280;59081;42.706;23.306;2023-12-14T21:49:25;94937.81;;;4.42;100.00
43934;BME280;59081;42.706;23.306;2023-12-14T21:54:33;94831.09;;;3.51;100.00
43934;BME280;59081;42.706;23.306;2023-12-14T21:59:36;94783.63;;;3.52;100.00
43934;BME280;59081;42.706;23.306;2023-12-14T22:04:39;94887.13;;;4.04;100.00
43934;BME280;59081;42.706;23.306;2023-12-14T22:09:43;94997.69;;;4.60;100.00
43934;BME280;59081;42.706;23.306;2023-12-14T22:14:50;94776.97;;;3.01;100.00
43934;BME280;59081;42.706;23.306;2023-12-14T22:19:51;95022.44;;;4.83;100.00
43934;BME280;59081;42.706;23.306;2023-12-14T22:25:04;94896.22;;;3.87;100.00
43934;BME280;59081;42.706;23.306;2023-12-14T22:30:11;94983.69;;;4.06;100.00
43934;BME280;59081;42.706;23.306;2023-12-14T22:35:21;95059.75;;;4.45;100.00
43934;BME280;59081;42.706;23.306;2023-12-14T22:40:35;95029.53;;;4.74;100.00
43934;BME280;59081;42.706;23.306;2023-12-14T22:45:44;95021.63;;;4.38;100.00
43934;BME280;59081;42.706;23.306;2023-12-14T22:50:52;94946.53;;;3.71;100.00
43934;BME280;59081;42.706;23.306;2023-12-14T22:56:06;94912.69;;;3.69;100.00
43934;BME280;59081;42.706;23.306;2023-12-14T23:01:10;94977.16;;;3.90;100.00
43934;BME280;59081;42.706;23.306;2023-12-14T23:06:14;94848.56;;;2.91;100.00
43934;BME280;59081;42.706;23.306;2023-12-14T23:11:20;94852.38;;;3.04;100.00
43934;BME280;59081;42.706;23.306;2023-12-14T23:16:24;94992.44;;;3.73;100.00
43934;BME280;59081;42.706;23.306;2023-12-14T23:21:34;94989.00;;;4.24;100.00
43934;BME280;59081;42.706;23.306;2023-12-14T23:26:40;94882.38;;;3.63;100.00
43934;BME280;59081;42.706;23.306;2023-12-14T23:31:41;95048.19;;;4.82;100.00
43934;BME280;59081;42.706;23.306;2023-12-14T23:36:45;94873.72;;;3.79;100.00
43934;BME280;59081;42.706;23.306;2023-12-14T23:41:51;95045.44;;;4.31;100.00
43934;BME280;59081;42.706;23.306;2023-12-14T23:47:00;94834.41;;;3.21;100.00
43934;BME280;59081;42.706;23.306;2023-12-14T23:52:06;95006.53;;;4.27;100.00
43934;BME280;59081;42.706;23.306;2023-12-14T23:57:09;94878.56;;;3.50;100.00
